Time;durP1;ratioP1;P1;durP2;ratioP2;P2;SDS_P1;SDS_P2;PMS_P1;PMS_P2;Temp;Humidity;BMP_temperature;BMP_pressure;BME280_temperature;BME280_humidity;BME280_pressure;Samples;Min_cycle;Max_cycle;Signal;HPM_P1;HPM_P2
2023/01/14 00:01:24;;;;;;;41.10;21.60;;;;;;;-2.79;75.72;100966.66;105868;1254;69562;-69
2023/01/14 00:03:52;;;;;;;37.40;20.10;;;;;;;-2.81;75.72;100967.55;107403;1254;60660;-71
2023/01/14 00:06:21;;;;;;;31.00;17.60;;;;;;;-2.82;75.80;100967.73;107944;1254;65527;-70
2023/01/14 00:08:53;;;;;;;33.90;17.90;;;;;;;-2.83;75.84;100968.44;106271;1253;60465;-71
2023/01/14 00:11:45;;;;;;;35.40;18.00;;;;;;;-2.84;75.96;100969.50;106032;1254;61076;-71
2023/01/14 00:14:06;;;;;;;36.10;17.80;;;;;;;-2.84;75.98;100968.12;106019;1259;68130;-72
2023/01/14 00:16:34;;;;;;;30.40;15.60;;;;;;;-2.83;76.12;100967.41;106111;1258;60645;-71
2023/01/14 00:19:01;;;;;;;35.70;16.30;;;;;;;-2.82;76.20;100966.36;105987;1257;65466;-70
2023/01/14 00:21:28;;;;;;;29.00;15.40;;;;;;;-2.84;76.31;100967.59;106573;1254;60476;-72
2023/01/14 00:23:55;;;;;;;26.40;14.70;;;;;;;-2.84;76.44;100968.80;105145;1254;60368;-73
2023/01/14 00:26:25;;;;;;;27.80;14.10;;;;;;;-2.85;76.48;100966.58;105911;1257;67773;-71
2023/01/14 00:28:54;;;;;;;26.70;14.90;;;;;;;-2.83;76.55;100965.17;106678;1255;60910;-72
2023/01/14 00:31:23;;;;;;;26.20;14.30;;;;;;;-2.81;76.70;100966.16;106213;1256;66586;-71
2023/01/14 00:33:51;;;;;;;33.50;15.90;;;;;;;-2.81;76.82;100963.22;106029;1259;60499;-73
2023/01/14 00:36:20;;;;;;;28.80;15.00;;;;;;;-2.78;76.84;100965.97;105932;1258;60453;-73
2023/01/14 00:38:47;;;;;;;31.00;15.60;;;;;;;-2.76;76.91;100960.23;105920;1257;68114;-71
2023/01/14 00:41:19;;;;;;;30.70;14.90;;;;;;;-2.74;76.94;100956.23;106319;1254;60881;-70
2023/01/14 00:43:48;;;;;;;25.80;15.10;;;;;;;-2.73;77.08;100954.48;105356;1255;65353;-71
2023/01/14 00:46:17;;;;;;;22.60;12.50;;;;;;;-2.72;77.01;100952.23;106190;1256;60565;-74
2023/01/14 00:48:44;;;;;;;20.00;12.80;;;;;;;-2.72;77.09;100950.85;105889;1260;60562;-72
2023/01/14 00:51:14;;;;;;;25.10;13.30;;;;;;;-2.72;77.19;100948.95;105753;1254;67967;-71
2023/01/14 00:53:41;;;;;;;25.00;12.20;;;;;;;-2.71;77.24;100952.05;105661;1258;60783;-71
2023/01/14 00:56:08;;;;;;;21.00;12.80;;;;;;;-2.71;77.26;100954.64;105737;1257;66565;-75
2023/01/14 00:58:35;;;;;;;20.70;12.10;;;;;;;-2.72;77.37;100952.74;105840;1257;60493;-78
2023/01/14 01:01:02;;;;;;;24.60;12.50;;;;;;;-2.72;77.43;100953.10;105829;1259;60450;-77
2023/01/14 01:03:30;;;;;;;24.20;11.30;;;;;;;-2.73;77.52;100948.80;105797;1254;66458;-77
2023/01/14 01:05:57;;;;;;;24.50;11.60;;;;;;;-2.72;77.62;100947.23;105844;1259;60906;-77
2023/01/14 01:08:24;;;;;;;19.00;10.60;;;;;;;-2.71;77.74;100946.34;105788;1256;65404;-77
2023/01/14 01:10:52;;;;;;;20.20;10.30;;;;;;;-2.71;77.80;100945.15;106399;1253;60314;-78
2023/01/14 01:13:20;;;;;;;14.70;10.10;;;;;;;-2.72;77.86;100945.68;105649;1254;60556;-76
2023/01/14 01:15:47;;;;;;;19.00;11.60;;;;;;;-2.72;77.93;100940.17;105976;1254;66698;-79
2023/01/14 01:18:14;;;;;;;23.80;11.50;;;;;;;-2.73;78.03;100941.23;105613;1254;60764;-82
2023/01/14 01:20:42;;;;;;;21.30;10.80;;;;;;;-2.73;78.13;100938.12;105757;1254;66349;-78
2023/01/14 01:23:11;;;;;;;19.70;10.90;;;;;;;-2.72;78.19;100937.06;105524;1255;60610;-77
2023/01/14 01:25:38;;;;;;;19.00;10.90;;;;;;;-2.71;78.25;100937.90;105646;1254;60473;-78
2023/01/14 01:28:05;;;;;;;20.50;10.80;;;;;;;-2.70;78.31;100935.32;105819;1259;67836;-76
2023/01/14 01:30:32;;;;;;;20.80;10.40;;;;;;;-2.71;78.36;100933.60;106007;1254;60544;-76
2023/01/14 01:33:00;;;;;;;17.50;10.00;;;;;;;-2.70;78.44;100934.29;105628;1257;66710;-77
2023/01/14 01:35:28;;;;;;;18.00;10.00;;;;;;;-2.69;78.51;100934.45;105873;1259;60524;-77
2023/01/14 01:37:55;;;;;;;18.90;9.90;;;;;;;-2.69;78.56;100933.41;105844;1254;60418;-78
2023/01/14 01:40:23;;;;;;;22.30;10.40;;;;;;;-2.68;78.72;100929.09;106620;1254;65486;-79
2023/01/14 01:42:56;;;;;;;17.00;9.00;;;;;;;-2.66;78.76;100924.05;105707;1255;61400;-78
2023/01/14 01:45:44;;;;;;;15.30;8.80;;;;;;;-2.65;78.84;100926.97;105804;1257;65472;-76
2023/01/14 01:48:32;;;;;;;14.10;9.20;;;;;;;-2.66;78.82;100925.60;106006;1259;60565;-75
2023/01/14 01:51:06;;;;;;;16.00;9.20;;;;;;;-2.67;78.85;100924.06;105967;1253;60444;-75
2023/01/14 01:53:35;;;;;;;14.40;8.10;;;;;;;-2.68;78.97;100928.21;105980;1259;67777;-75
2023/01/14 01:56:03;;;;;;;19.90;8.80;;;;;;;-2.69;79.03;100927.72;105890;1258;61275;-74
2023/01/14 01:58:29;;;;;;;13.40;8.20;;;;;;;-2.70;79.11;100925.14;105775;1254;66352;-74
2023/01/14 02:00:59;;;;;;;17.30;9.40;;;;;;;-2.71;79.23;100922.04;105657;1259;60450;-76
2023/01/14 02:03:39;;;;;;;16.70;8.70;;;;;;;-2.69;79.22;100921.02;105668;1254;60481;-73
2023/01/14 02:06:08;;;;;;;17.30;9.20;;;;;;;-2.68;79.30;100920.12;105612;1259;67654;-75
2023/01/14 02:08:37;;;;;;;17.20;9.30;;;;;;;-2.68;79.34;100921.15;105868;1254;60651;-74
2023/01/14 02:11:23;;;;;;;17.40;9.80;;;;;;;-2.68;79.38;100920.30;105885;1254;65557;-74
2023/01/14 02:14:05;;;;;;;25.00;11.40;;;;;;;-2.67;79.44;100920.63;105792;1257;60467;-74
2023/01/14 02:16:38;;;;;;;20.20;11.50;;;;;;;-2.66;79.57;100917.84;105836;1254;60356;-74
2023/01/14 02:19:34;;;;;;;25.50;14.70;;;;;;;-2.64;79.63;100916.08;106038;1252;67576;-74
2023/01/14 02:22:19;;;;;;;21.30;12.90;;;;;;;-2.63;79.68;100919.15;105849;1255;60587;-73
2023/01/14 02:25:08;;;;;;;23.00;13.20;;;;;;;-2.63;79.73;100918.30;105793;1254;65318;-79
2023/01/14 02:27:49;;;;;;;23.20;12.20;;;;;;;-2.62;79.80;100919.48;105918;1254;60469;-73
2023/01/14 02:30:38;;;;;;;18.70;10.70;;;;;;;-2.60;79.85;100919.14;105805;1260;60463;-74
2023/01/14 02:33:17;;;;;;;15.90;9.60;;;;;;;-2.59;79.88;100919.80;105674;1254;67412;-74
2023/01/14 02:36:21;;;;;;;20.00;10.10;;;;;;;-2.57;79.97;100920.80;105760;1254;60631;-74
2023/01/14 02:38:52;;;;;;;23.10;10.20;;;;;;;-2.55;80.02;100919.39;105527;1254;66602;-75
2023/01/14 02:44:24;;;;;;;17.30;8.70;;;;;;;-2.53;80.10;100915.36;105416;1254;60487;-77
2023/01/14 02:46:53;;;;;;;13.10;8.10;;;;;;;-2.52;80.08;100918.63;105909;1255;66573;-75
2023/01/14 02:49:26;;;;;;;16.10;7.80;;;;;;;-2.52;80.17;100917.42;105797;1259;60517;-75
2023/01/14 02:51:55;;;;;;;13.80;7.50;;;;;;;-2.52;80.16;100922.92;105672;1254;66499;-75
2023/01/14 02:54:22;;;;;;;18.90;7.90;;;;;;;-2.52;80.13;100921.38;105760;1256;60508;-77
2023/01/14 02:56:49;;;;;;;13.60;6.90;;;;;;;-2.52;80.13;100923.97;105362;1254;60549;-75
2023/01/14 02:59:44;;;;;;;14.60;8.10;;;;;;;-2.52;80.21;100929.48;105726;1259;67735;-76
2023/01/14 03:02:23;;;;;;;12.50;7.90;;;;;;;-2.52;80.16;100926.92;105802;1254;60612;-74
2023/01/14 03:05:06;;;;;;;19.20;9.40;;;;;;;-2.53;80.29;100926.77;105598;1257;66533;-74
2023/01/14 03:07:57;;;;;;;16.20;9.50;;;;;;;-2.54;80.25;100926.41;105634;1257;60558;-75
2023/01/14 03:10:30;;;;;;;16.50;10.10;;;;;;;-2.54;80.25;100924.86;105917;1254;60527;-73
2023/01/14 03:13:11;;;;;;;15.80;9.30;;;;;;;-2.53;80.38;100925.38;105568;1260;67868;-74
2023/01/14 03:15:43;;;;;;;17.90;10.70;;;;;;;-2.51;80.43;100925.17;105698;1254;61280;-73
2023/01/14 03:18:25;;;;;;;18.20;9.20;;;;;;;-2.50;80.46;100924.65;105848;1260;66194;-79
2023/01/14 03:21:05;;;;;;;16.70;9.50;;;;;;;-2.48;80.52;100927.55;105792;1259;60453;-74
2023/01/14 03:23:36;;;;;;;16.50;9.50;;;;;;;-2.47;80.51;100925.98;105854;1260;60376;-75
2023/01/14 03:26:04;;;;;;;17.80;10.10;;;;;;;-2.46;80.53;100925.95;105932;1254;66579;-75
2023/01/14 03:28:33;;;;;;;15.90;9.50;;;;;;;-2.44;80.55;100933.67;105739;1252;68325;-76
2023/01/14 03:31:03;;;;;;;13.90;8.70;;;;;;;-2.44;80.61;100929.52;105486;1263;66549;-75
2023/01/14 03:33:40;;;;;;;14.90;9.90;;;;;;;-2.43;80.62;100929.86;105810;1254;60581;-73
2023/01/14 03:36:07;;;;;;;17.80;10.40;;;;;;;-2.44;80.65;100933.66;105826;1255;60466;-72
2023/01/14 03:38:38;;;;;;;20.60;11.90;;;;;;;-2.43;80.69;100934.33;105874;1255;67452;-71
2023/01/14 03:41:06;;;;;;;22.60;13.00;;;;;;;-2.41;80.74;100926.04;105873;1258;60840;-72
2023/01/14 03:44:02;;;;;;;18.30;11.60;;;;;;;-2.39;80.74;100924.45;105731;1259;66724;-71
2023/01/14 03:46:29;;;;;;;23.30;11.70;;;;;;;-2.37;80.79;100922.86;105785;1260;60559;-74
2023/01/14 03:48:56;;;;;;;21.00;11.60;;;;;;;-2.37;80.76;100927.88;105710;1254;60504;-72
2023/01/14 03:51:36;;;;;;;17.20;10.60;;;;;;;-2.39;80.79;100929.98;105690;1260;67923;-72
2023/01/14 03:54:26;;;;;;;21.70;11.70;;;;;;;-2.40;80.76;100934.13;106221;1254;60533;-72
2023/01/14 03:56:56;;;;;;;18.50;10.60;;;;;;;-2.40;80.79;100933.95;105892;1259;66335;-74
2023/01/14 03:59:56;;;;;;;16.50;9.80;;;;;;;-2.39;80.83;100937.38;106415;1260;60320;-75
2023/01/14 04:02:23;;;;;;;18.40;10.40;;;;;;;-2.38;80.85;100938.76;108717;1254;58178;-75
2023/01/14 04:04:49;;;;;;;18.20;10.50;;;;;;;-2.38;80.92;100940.81;107895;1259;66421;-73
2023/01/14 04:07:16;;;;;;;18.80;10.70;;;;;;;-2.36;80.94;100944.23;105851;1259;60415;-76
2023/01/14 04:09:43;;;;;;;21.10;10.90;;;;;;;-2.35;80.93;100941.27;105608;1254;66749;-76
2023/01/14 04:12:10;;;;;;;17.40;10.10;;;;;;;-2.33;80.94;100941.92;105779;1253;60561;-76
2023/01/14 04:17:22;;;;;;;17.60;10.70;;;;;;;-2.28;80.99;100944.80;105730;1260;66632;-77
2023/01/14 04:19:49;;;;;;;17.40;10.20;;;;;;;-2.27;81.00;100944.95;105719;1259;61146;-78
2023/01/14 04:22:16;;;;;;;18.90;11.20;;;;;;;-2.26;81.02;100948.20;105802;1254;66500;-75
2023/01/14 04:24:43;;;;;;;19.20;11.00;;;;;;;-2.24;81.00;100951.61;105623;1254;60557;-74
2023/01/14 04:27:10;;;;;;;20.00;11.80;;;;;;;-2.22;81.00;100952.44;105915;1260;60414;-74
2023/01/14 04:29:37;;;;;;;23.10;13.90;;;;;;;-2.22;80.99;100952.10;105506;1254;67540;-76
2023/01/14 04:32:04;;;;;;;19.00;12.10;;;;;;;-2.20;81.06;100951.55;105751;1262;60517;-74
2023/01/14 04:34:31;;;;;;;24.40;13.80;;;;;;;-2.19;81.01;100947.40;106103;1259;65327;-75
2023/01/14 04:36:58;;;;;;;22.30;13.70;;;;;;;-2.19;81.00;100950.66;106286;1257;60549;-74
2023/01/14 04:39:25;;;;;;;31.10;20.50;;;;;;;-2.18;81.01;100952.20;105944;1269;60463;-74
2023/01/14 04:44:38;;;;;;;27.80;18.60;;;;;;;-2.14;81.07;100955.57;105621;1260;60906;-74
2023/01/14 04:47:04;;;;;;;24.80;15.10;;;;;;;-2.13;81.06;100954.34;105854;1264;66372;-73
2023/01/14 04:49:31;;;;;;;24.30;15.20;;;;;;;-2.13;81.00;100955.72;105665;1260;60331;-72
2023/01/14 04:51:58;;;;;;;23.90;14.30;;;;;;;-2.12;81.00;100953.48;105754;1260;60421;-74
2023/01/14 04:54:25;;;;;;;23.20;13.00;;;;;;;-2.12;80.98;100950.02;105691;1254;67461;-75
2023/01/14 04:56:52;;;;;;;25.00;13.80;;;;;;;-2.14;80.99;100952.27;105720;1259;61111;-75
2023/01/14 04:59:18;;;;;;;30.50;14.30;;;;;;;-2.16;80.95;100958.70;105727;1259;65479;-74
2023/01/14 05:01:45;;;;;;;26.90;13.60;;;;;;;-2.17;80.97;100962.52;105898;1259;60466;-74
2023/01/14 05:04:12;;;;;;;29.60;14.70;;;;;;;-2.18;80.93;100959.97;105853;1257;59256;-75
2023/01/14 05:06:39;;;;;;;25.90;14.30;;;;;;;-2.18;80.96;100962.02;105778;1259;67773;-77
2023/01/14 05:09:06;;;;;;;34.10;17.50;;;;;;;-2.17;80.97;100963.91;105532;1260;60792;-76
2023/01/14 05:11:33;;;;;;;33.10;17.30;;;;;;;-2.17;80.92;100962.88;105727;1257;74215;-75
2023/01/14 05:14:00;;;;;;;27.20;15.90;;;;;;;-2.17;80.83;100964.95;105822;1260;60450;-75
2023/01/14 05:16:27;;;;;;;23.30;14.10;;;;;;;-2.16;80.93;100966.83;105677;1261;60457;-76
2023/01/14 05:18:54;;;;;;;34.80;20.70;;;;;;;-2.16;80.93;100967.68;105647;1269;67747;-75
2023/01/14 05:21:21;;;;;;;42.10;22.80;;;;;;;-2.16;80.85;100964.73;105800;1261;60380;-76
2023/01/14 05:23:48;;;;;;;54.70;26.10;;;;;;;-2.16;80.93;100960.77;105747;1257;65147;-75
2023/01/14 05:26:16;;;;;;;54.90;28.10;;;;;;;-2.16;80.89;100962.16;105816;1259;61511;-76
2023/01/14 05:28:43;;;;;;;53.00;28.70;;;;;;;-2.17;80.92;100960.97;105614;1259;61096;-75
2023/01/14 05:31:10;;;;;;;42.50;24.70;;;;;;;-2.17;80.92;100960.82;105851;1260;67824;-76
2023/01/14 05:33:37;;;;;;;46.20;24.10;;;;;;;-2.18;80.89;100960.30;105429;1260;60948;-75
2023/01/14 05:36:05;;;;;;;36.40;19.60;;;;;;;-2.18;80.86;100958.23;105734;1254;66700;-76
2023/01/14 05:38:32;;;;;;;27.40;17.20;;;;;;;-2.17;80.86;100958.40;105482;1254;60430;-75
2023/01/14 05:40:58;;;;;;;24.00;14.60;;;;;;;-2.17;80.86;100954.08;105545;1255;60972;-76
2023/01/14 05:46:16;;;;;;;20.00;12.30;;;;;;;-2.18;80.85;100955.30;105720;1258;60803;-75
2023/01/14 05:48:43;;;;;;;25.40;14.00;;;;;;;-2.17;80.81;100953.91;105805;1260;66540;-76
2023/01/14 05:51:11;;;;;;;21.90;13.60;;;;;;;-2.18;80.81;100956.68;105583;1260;60360;-76
2023/01/14 05:53:38;;;;;;;21.30;12.60;;;;;;;-2.16;80.83;100957.34;105827;1254;60514;-74
2023/01/14 05:56:06;;;;;;;36.80;17.10;;;;;;;-2.16;80.76;100956.80;105742;1254;67953;-76
2023/01/14 05:58:33;;;;;;;25.50;15.40;;;;;;;-2.17;80.73;100957.69;105807;1260;60447;-77
2023/01/14 06:07:00;;;;;;;22.30;12.60;;;;;;;-2.17;80.71;100959.07;105126;1266;60607;-74
2023/01/14 06:09:27;;;;;;;24.90;13.70;;;;;;;-2.19;80.65;100959.12;105088;1265;67672;-74
2023/01/14 06:12:02;;;;;;;26.10;13.00;;;;;;;-2.21;80.60;100960.19;105472;1263;60687;-75
2023/01/14 06:14:31;;;;;;;17.70;10.80;;;;;;;-2.21;80.53;100958.80;105554;1254;65679;-72
2023/01/14 06:16:58;;;;;;;22.10;12.30;;;;;;;-2.21;80.57;100953.48;105640;1262;60533;-75
2023/01/14 06:19:25;;;;;;;20.70;12.50;;;;;;;-2.21;80.56;100951.73;105802;1260;60440;-75
2023/01/14 06:21:52;;;;;;;18.50;10.60;;;;;;;-2.20;80.56;100956.05;105811;1267;68240;-74
2023/01/14 06:24:19;;;;;;;16.00;10.10;;;;;;;-2.20;80.56;100953.10;105776;1254;68530;-72
2023/01/14 06:26:46;;;;;;;18.30;11.70;;;;;;;-2.20;80.56;100950.52;105612;1260;66777;-72
2023/01/14 06:29:13;;;;;;;19.30;11.10;;;;;;;-2.21;80.54;100954.50;105831;1254;60491;-72
2023/01/14 06:31:40;;;;;;;18.30;11.90;;;;;;;-2.20;80.52;100958.11;105726;1262;60644;-72
2023/01/14 06:40:38;;;;;;;32.70;17.10;;;;;;;-2.14;80.46;100955.92;102607;1304;601464;-72
2023/01/14 06:43:06;;;;;;;29.20;17.20;;;;;;;-2.15;80.47;100958.50;104904;1273;59299;-73
2023/01/14 06:45:32;;;;;;;26.00;16.90;;;;;;;-2.12;80.53;100960.38;104996;1273;59369;-72
2023/01/14 06:48:00;;;;;;;24.40;14.40;;;;;;;-2.12;80.48;100957.61;105071;1268;64886;-71
2023/01/14 06:50:27;;;;;;;19.90;12.50;;;;;;;-2.11;80.43;100954.33;104858;1272;60701;-72
2023/01/14 06:52:58;;;;;;;24.50;12.90;;;;;;;-2.13;80.31;100952.79;105059;1269;65633;-72
2023/01/14 06:55:25;;;;;;;23.20;14.00;;;;;;;-2.15;80.29;100950.58;104929;1267;137398;-66
2023/01/14 06:57:51;;;;;;;22.60;12.60;;;;;;;-2.16;80.27;100950.79;104902;1265;59155;-70
2023/01/14 07:00:18;;;;;;;21.30;12.20;;;;;;;-2.18;80.29;100950.29;105419;1258;66084;-69
2023/01/14 07:02:45;;;;;;;25.50;13.30;;;;;;;-2.18;80.30;100950.83;105196;1258;59885;-67
2023/01/14 07:05:14;;;;;;;26.20;14.00;;;;;;;-2.17;80.32;100952.01;105128;1261;66548;-69
2023/01/14 07:07:41;;;;;;;25.70;14.20;;;;;;;-2.16;80.32;100955.26;105287;1261;59677;-69
2023/01/14 07:10:09;;;;;;;23.90;13.50;;;;;;;-2.14;80.28;100954.70;105396;1258;59942;-68
2023/01/14 07:12:36;;;;;;;23.20;15.20;;;;;;;-2.14;80.22;100954.35;104954;1267;67012;-71
2023/01/14 07:15:03;;;;;;;25.30;15.30;;;;;;;-2.13;80.23;100952.77;105245;1260;61366;-69
2023/01/14 07:17:31;;;;;;;29.80;18.70;;;;;;;-2.12;80.23;100951.57;105384;1261;66641;-72
2023/01/14 07:19:58;;;;;;;32.70;17.90;;;;;;;-2.12;80.16;100957.27;105765;1257;59760;-66
2023/01/14 07:22:25;;;;;;;22.70;14.30;;;;;;;-2.11;80.19;100961.74;105471;1263;59646;-68
2023/01/14 07:24:52;;;;;;;20.20;13.20;;;;;;;-2.11;80.18;100962.94;105295;1264;66871;-68
2023/01/14 07:27:19;;;;;;;21.90;13.80;;;;;;;-2.09;80.19;100965.16;105654;1258;60978;-71
2023/01/14 07:29:47;;;;;;;26.90;13.90;;;;;;;-2.08;80.08;100966.67;105571;1264;65462;-68
2023/01/14 07:32:14;;;;;;;26.90;16.50;;;;;;;-2.08;80.02;100966.34;105591;1258;59698;-69
2023/01/14 07:34:41;;;;;;;36.80;18.60;;;;;;;-2.09;79.95;100965.50;105847;1258;59943;-69
2023/01/14 07:37:08;;;;;;;33.40;17.40;;;;;;;-2.10;79.99;100966.90;105438;1262;67171;-70
2023/01/14 07:39:34;;;;;;;40.10;21.50;;;;;;;-2.11;79.91;100963.45;105741;1262;60914;-67
2023/01/14 07:42:01;;;;;;;31.30;18.00;;;;;;;-2.10;79.86;100965.86;105425;1259;66485;-71
2023/01/14 07:44:29;;;;;;;29.90;17.30;;;;;;;-2.08;79.81;100966.15;105524;1259;59750;-71
2023/01/14 07:46:56;;;;;;;33.00;18.60;;;;;;;-2.05;79.81;100973.35;105564;1257;59674;-72
2023/01/14 07:49:23;;;;;;;25.10;16.40;;;;;;;-2.05;79.74;100976.80;105770;1263;66920;-70
2023/01/14 07:51:50;;;;;;;25.30;14.90;;;;;;;-2.05;79.62;100976.95;105496;1264;60709;-71
2023/01/14 07:54:17;;;;;;;21.30;14.00;;;;;;;-2.04;79.58;100980.22;106730;1258;66459;-69
2023/01/14 07:56:46;;;;;;;27.70;15.60;;;;;;;-2.02;79.58;100987.80;105656;1260;60088;-70
2023/01/14 07:59:13;;;;;;;21.30;14.20;;;;;;;-2.03;79.48;100988.16;105413;1257;59714;-71
2023/01/14 08:01:40;;;;;;;23.80;15.50;;;;;;;-2.05;79.42;100988.19;105197;1257;66841;-70
2023/01/14 08:04:08;;;;;;;24.80;15.00;;;;;;;-2.05;79.44;100991.11;105458;1257;59921;-66
2023/01/14 08:06:35;;;;;;;22.80;14.00;;;;;;;-2.04;79.33;100995.41;105475;1263;66625;-68
2023/01/14 08:09:02;;;;;;;29.60;16.80;;;;;;;-2.06;79.28;100995.45;105538;1263;59649;-69
2023/01/14 08:11:29;;;;;;;31.20;18.40;;;;;;;-2.09;79.17;100997.92;105028;1260;59643;-67
2023/01/14 08:13:56;;;;;;;26.50;16.30;;;;;;;-2.10;79.12;101001.06;105054;1262;66859;-66
2023/01/14 08:16:23;;;;;;;33.70;18.50;;;;;;;-2.10;79.14;101001.41;105165;1257;61084;-66
2023/01/14 08:18:50;;;;;;;27.20;16.30;;;;;;;-2.10;79.17;101005.54;105821;1257;66317;-67
2023/01/14 08:21:17;;;;;;;25.90;15.20;;;;;;;-2.09;79.14;101008.80;105534;1259;59660;-68
2023/01/14 08:23:44;;;;;;;24.90;14.50;;;;;;;-2.09;79.08;101004.66;105673;1258;59673;-67
2023/01/14 08:26:12;;;;;;;25.20;13.80;;;;;;;-2.08;79.10;101004.11;105412;1256;66916;-68
2023/01/14 08:28:39;;;;;;;23.50;13.80;;;;;;;-2.06;79.08;101006.16;105718;1255;59720;-67
2023/01/14 08:31:11;;;;;;;21.30;12.50;;;;;;;-2.03;79.01;101009.03;105816;1255;66963;-69
2023/01/14 08:33:39;;;;;;;23.50;15.00;;;;;;;-2.01;79.01;101010.04;105231;1257;59712;-69
2023/01/14 08:36:09;;;;;;;28.70;16.40;;;;;;;-2.00;78.97;101007.27;105439;1256;59513;-68
2023/01/14 08:38:37;;;;;;;23.60;15.30;;;;;;;-1.99;78.93;101003.11;105963;1254;65658;-69
2023/01/14 08:41:09;;;;;;;24.10;14.60;;;;;;;-1.98;78.88;101002.91;105651;1254;60862;-69
2023/01/14 08:43:36;;;;;;;19.00;12.20;;;;;;;-1.96;78.87;100999.07;105286;1254;66581;-70
2023/01/14 08:46:04;;;;;;;22.10;12.80;;;;;;;-1.94;78.79;100999.72;105251;1259;61465;-69
2023/01/14 08:48:31;;;;;;;23.30;13.00;;;;;;;-1.94;78.69;101001.45;105306;1259;59631;-69
2023/01/14 08:51:06;;;;;;;23.60;14.40;;;;;;;-1.95;78.66;101002.15;105434;1254;66896;-68
2023/01/14 08:53:35;;;;;;;23.30;12.90;;;;;;;-1.93;78.71;100999.36;105534;1259;59988;-68
2023/01/14 08:56:03;;;;;;;20.20;12.40;;;;;;;-1.89;78.65;101002.58;105434;1259;65319;-68
2023/01/14 08:58:30;;;;;;;21.10;12.40;;;;;;;-1.87;78.58;101000.29;106089;1259;59663;-71
2023/01/14 09:00:58;;;;;;;18.40;12.30;;;;;;;-1.86;78.49;100997.16;105324;1260;59631;-71
2023/01/14 09:03:29;;;;;;;19.00;12.40;;;;;;;-1.85;78.45;100998.00;105643;1261;67063;-69
2023/01/14 09:05:57;;;;;;;27.10;13.80;;;;;;;-1.84;78.37;101000.41;105495;1258;59927;-68
2023/01/14 09:17:05;;;;;;;22.60;14.10;;;;;;;-1.80;78.19;100987.38;105437;1258;66943;-70
2023/01/14 09:19:36;;;;;;;17.70;11.80;;;;;;;-1.77;78.06;100982.15;105330;1257;60931;-71
2023/01/14 09:22:04;;;;;;;19.50;11.90;;;;;;;-1.76;78.05;100981.26;106389;1256;65585;-68
2023/01/14 09:24:30;;;;;;;16.90;12.20;;;;;;;-1.73;77.98;100980.00;105453;1258;59622;-68
2023/01/14 09:26:57;;;;;;;20.70;13.50;;;;;;;-1.71;77.91;100980.31;106096;1254;59788;-70
2023/01/14 09:29:25;;;;;;;14.50;10.70;;;;;;;-1.72;77.76;100975.52;105704;1254;66538;-70
2023/01/14 09:31:52;;;;;;;16.60;10.30;;;;;;;-1.75;77.65;100976.59;105728;1256;61377;-69
2023/01/14 09:34:20;;;;;;;14.10;9.90;;;;;;;-1.79;77.53;100979.95;105790;1256;66196;-69
2023/01/14 09:36:49;;;;;;;22.70;13.30;;;;;;;-1.84;77.48;100977.95;105784;1258;59826;-70
2023/01/14 09:39:16;;;;;;;19.60;13.30;;;;;;;-1.86;77.43;100978.35;105699;1259;59193;-69
2023/01/14 09:41:49;;;;;;;20.50;11.00;;;;;;;-1.86;77.34;100981.98;105976;1259;66687;-71
2023/01/14 09:44:16;;;;;;;18.80;13.30;;;;;;;-1.85;77.34;100983.16;105969;1256;61083;-71
2023/01/14 09:46:43;;;;;;;29.30;13.60;;;;;;;-1.83;77.37;100980.90;105954;1255;65571;-72
2023/01/14 09:49:09;;;;;;;23.60;14.90;;;;;;;-1.82;77.38;100976.73;105840;1256;59868;-70
2023/01/14 09:51:39;;;;;;;26.70;13.80;;;;;;;-1.78;77.36;100975.63;105820;1260;59520;-70
2023/01/14 09:54:25;;;;;;;17.70;11.20;;;;;;;-1.75;77.29;100971.92;105789;1254;65612;-71
2023/01/14 09:57:00;;;;;;;16.60;11.40;;;;;;;-1.74;77.21;100974.16;105689;1259;59982;-70
2023/01/14 09:59:32;;;;;;;15.70;11.40;;;;;;;-1.71;77.18;100973.60;105889;1256;65299;-71
2023/01/14 10:02:17;;;;;;;42.10;23.30;;;;;;;-1.70;77.10;100978.39;105462;1259;59706;-72
2023/01/14 10:05:10;;;;;;;23.40;14.50;;;;;;;-1.69;77.12;100971.83;105509;1258;59641;-73
2023/01/14 10:07:37;;;;;;;15.30;11.10;;;;;;;-1.69;77.02;100973.36;105625;1255;66573;-73
2023/01/14 10:10:04;;;;;;;17.90;10.30;;;;;;;-1.69;76.95;100975.63;105608;1256;59711;-72
2023/01/14 10:12:35;;;;;;;23.10;12.70;;;;;;;-1.72;76.84;100970.68;105831;1260;66289;-74
2023/01/14 10:15:13;;;;;;;21.30;13.30;;;;;;;-1.74;76.85;100971.23;105817;1256;59751;-73
2023/01/14 10:17:41;;;;;;;19.80;11.70;;;;;;;-1.72;76.89;100968.25;105972;1253;59706;-73
2023/01/14 10:20:36;;;;;;;22.70;11.50;;;;;;;-1.68;76.91;100965.59;105950;1253;65579;-72
2023/01/14 10:23:23;;;;;;;16.60;11.00;;;;;;;-1.63;76.85;100966.88;105585;1260;59990;-74
2023/01/14 10:25:52;;;;;;;16.80;11.50;;;;;;;-1.60;76.81;100964.23;105546;1261;66797;-73
2023/01/14 10:28:24;;;;;;;16.80;12.40;;;;;;;-1.58;76.68;100962.96;105868;1254;59773;-72
2023/01/14 10:30:51;;;;;;;18.80;12.70;;;;;;;-1.58;76.59;100957.94;105893;1253;59631;-72
2023/01/14 10:33:19;;;;;;;18.90;12.80;;;;;;;-1.56;76.57;100958.08;105484;1253;66706;-72
2023/01/14 10:35:59;;;;;;;22.30;15.20;;;;;;;-1.56;76.48;100958.76;105622;1254;60811;-72
2023/01/14 10:38:27;;;;;;;14.20;10.50;;;;;;;-1.56;76.41;100956.69;105418;1257;65258;-73
2023/01/14 10:41:00;;;;;;;19.80;12.60;;;;;;;-1.56;76.36;100955.65;105335;1262;59719;-73
2023/01/14 10:43:42;;;;;;;14.50;10.20;;;;;;;-1.55;76.32;100956.51;105807;1258;59344;-73
2023/01/14 10:46:17;;;;;;;15.50;9.50;;;;;;;-1.58;76.17;100957.09;105672;1258;67113;-73
2023/01/14 10:48:52;;;;;;;17.10;9.80;;;;;;;-1.62;76.17;100958.05;105616;1253;60708;-76
2023/01/14 10:51:34;;;;;;;16.80;10.80;;;;;;;-1.62;76.20;100952.35;105894;1258;66516;-75
2023/01/14 10:54:15;;;;;;;20.10;11.70;;;;;;;-1.60;76.19;100948.50;105289;1261;60513;-71
2023/01/14 10:57:15;;;;;;;15.30;11.20;;;;;;;-1.58;76.14;100952.25;105415;1254;60549;-72
2023/01/14 10:59:44;;;;;;;19.60;12.20;;;;;;;-1.55;76.17;100950.64;105332;1254;67936;-75
2023/01/14 11:02:31;;;;;;;20.50;12.30;;;;;;;-1.52;76.18;100946.43;105839;1260;60422;-70
2023/01/14 11:04:59;;;;;;;19.10;11.50;;;;;;;-1.48;76.22;100945.46;105428;1256;74316;-70
2023/01/14 11:07:30;;;;;;;19.60;12.10;;;;;;;-1.46;76.10;100939.55;105101;1261;60452;-72
2023/01/14 11:09:59;;;;;;;16.70;12.40;;;;;;;-1.45;76.05;100939.02;105052;1253;60421;-70
2023/01/14 11:12:31;;;;;;;17.80;13.40;;;;;;;-1.45;76.03;100941.62;105591;1253;66638;-72
2023/01/14 11:14:59;;;;;;;21.60;13.70;;;;;;;-1.44;76.09;100939.88;105490;1253;60659;-74
2023/01/14 11:17:31;;;;;;;20.10;13.70;;;;;;;-1.43;75.95;100936.08;105821;1253;66575;-72
2023/01/14 11:20:23;;;;;;;18.30;12.70;;;;;;;-1.44;75.85;100937.80;105543;1253;60332;-69
2023/01/14 11:22:55;;;;;;;21.80;13.30;;;;;;;-1.44;75.78;100936.77;105488;1254;60571;-71
2023/01/14 11:25:22;;;;;;;17.80;11.60;;;;;;;-1.46;75.76;100934.05;105813;1261;66539;-71
2023/01/14 11:27:49;;;;;;;17.00;11.00;;;;;;;-1.48;75.69;100933.39;107033;1253;60508;-70
2023/01/14 11:30:17;;;;;;;20.60;12.70;;;;;;;-1.50;75.68;100936.39;105760;1257;66695;-69
2023/01/14 11:32:48;;;;;;;20.30;12.80;;;;;;;-1.53;75.70;100933.68;105323;1253;60461;-70
2023/01/14 11:35:19;;;;;;;18.10;12.70;;;;;;;-1.54;75.71;100933.71;105595;1253;60757;-73
2023/01/14 11:37:49;;;;;;;19.20;13.00;;;;;;;-1.53;75.73;100930.05;105862;1253;67693;-69
2023/01/14 11:43:19;;;;;;;25.50;16.60;;;;;;;-1.51;75.66;100928.11;105264;1253;66496;-71
2023/01/14 11:45:46;;;;;;;27.40;17.10;;;;;;;-1.51;75.71;100930.17;105999;1253;61107;-69
2023/01/14 11:48:24;;;;;;;33.50;19.40;;;;;;;-1.50;75.71;100930.33;105718;1253;60452;-69
2023/01/14 11:51:02;;;;;;;68.20;29.20;;;;;;;-1.49;75.62;100932.04;105907;1258;67860;-71
2023/01/14 11:53:43;;;;;;;80.70;32.70;;;;;;;-1.50;75.46;100929.98;106752;1254;61205;-70